createdAt,value
2022-10-12T00:01:07.119Z,4.47
2022-10-12T00:03:35.500Z,4.10
2022-10-12T00:06:11.323Z,3.40
2022-10-12T00:08:40.127Z,4.40
2022-10-12T00:11:08.850Z,4.30
2022-10-12T00:13:36.192Z,5.17
2022-10-12T00:16:08.904Z,5.03
2022-10-12T00:18:37.095Z,5.93
2022-10-12T00:21:09.248Z,5.60
2022-10-12T00:23:37.951Z,5.40
2022-10-12T00:26:08.313Z,5.27
2022-10-12T00:28:36.054Z,5.50
2022-10-12T00:31:09.112Z,3.73
2022-10-12T00:33:38.575Z,3.87
2022-10-12T00:36:25.111Z,4.17
2022-10-12T00:38:55.081Z,4.80
2022-10-12T00:41:27.217Z,5.47
2022-10-12T00:43:58.306Z,4.93
2022-10-12T00:46:41.707Z,5.77
2022-10-12T00:49:23.431Z,5.30
2022-10-12T00:52:01.044Z,5.50
2022-10-12T00:54:33.632Z,6.47
2022-10-12T00:57:05.753Z,5.90
2022-10-12T00:59:42.928Z,6.27
2022-10-12T01:02:10.054Z,5.83
2022-10-12T01:04:38.148Z,5.93
2022-10-12T01:07:05.141Z,5.57
2022-10-12T01:09:32.182Z,5.57
2022-10-12T01:11:59.416Z,5.80
2022-10-12T01:14:27.156Z,5.37
2022-10-12T01:17:20.687Z,4.90
2022-10-12T01:20:20.217Z,4.93
2022-10-12T01:23:17.017Z,5.47
2022-10-12T01:26:14.001Z,5.10
2022-10-12T01:28:54.863Z,6.10
2022-10-12T01:31:41.569Z,5.07
2022-10-12T01:34:55.418Z,4.83
2022-10-12T01:37:45.046Z,5.30
2022-10-12T01:40:29.854Z,5.20
2022-10-12T01:42:58.673Z,5.20
2022-10-12T01:45:42.057Z,4.43
2022-10-12T01:48:20.193Z,5.37
2022-10-12T01:54:28.064Z,4.67
2022-10-12T01:57:39.454Z,4.60
2022-10-12T02:00:12.361Z,4.00
2022-10-12T02:03:00.790Z,4.00
2022-10-12T02:05:36.096Z,4.80
2022-10-12T02:08:16.128Z,4.60
2022-10-12T02:11:06.562Z,3.83
2022-10-12T02:13:42.832Z,5.00
2022-10-12T02:16:14.274Z,4.90
2022-10-12T02:18:46.956Z,5.03
2022-10-12T02:21:20.973Z,4.80
2022-10-12T02:23:49.463Z,5.10
2022-10-12T02:26:17.991Z,4.40
2022-10-12T02:28:46.754Z,4.50
2022-10-12T02:31:56.878Z,4.80
2022-10-12T02:35:22.617Z,4.93
2022-10-12T02:38:00.488Z,4.80
2022-10-12T02:40:48.323Z,5.20
2022-10-12T02:43:26.444Z,4.63
2022-10-12T02:45:55.834Z,4.87
2022-10-12T02:48:25.152Z,5.17
2022-10-12T02:50:56.432Z,5.13
2022-10-12T02:53:25.233Z,5.07
2022-10-12T02:56:14.917Z,5.77
2022-10-12T02:58:45.421Z,5.20
2022-10-12T03:01:13.817Z,4.77
2022-10-12T03:03:40.907Z,5.07
2022-10-12T03:06:08.244Z,4.40
2022-10-12T03:08:35.798Z,3.83
2022-10-12T03:11:06.866Z,3.27
2022-10-12T03:13:34.334Z,4.60
2022-10-12T03:16:11.613Z,4.23
2022-10-12T03:18:39.549Z,5.10
2022-10-12T03:21:06.926Z,5.37
2022-10-12T03:23:34.335Z,4.43
2022-10-12T03:26:01.285Z,4.57
2022-10-12T03:28:28.420Z,5.00
2022-10-12T03:30:55.813Z,4.40
2022-10-12T03:33:22.962Z,4.37
2022-10-12T03:35:50.165Z,4.27
2022-10-12T03:38:18.943Z,4.20
2022-10-12T03:40:46.787Z,4.50
2022-10-12T03:43:14.229Z,4.20
2022-10-12T03:45:41.147Z,5.03
2022-10-12T03:48:08.211Z,4.60
2022-10-12T03:50:35.959Z,4.10
2022-10-12T03:53:05.279Z,4.70
2022-10-12T03:55:33.121Z,4.70
2022-10-12T03:58:00.314Z,4.37
2022-10-12T04:00:28.208Z,4.57
2022-10-12T04:02:55.688Z,5.20
2022-10-12T04:05:22.977Z,5.07
2022-10-12T04:07:50.333Z,4.60
2022-10-12T04:10:17.451Z,5.60
2022-10-12T04:12:44.959Z,5.47
2022-10-12T04:15:12.152Z,4.67
2022-10-12T04:17:39.610Z,4.77
2022-10-12T04:20:07.772Z,4.70
2022-10-12T04:22:34.670Z,3.97
2022-10-12T04:25:01.595Z,4.90
2022-10-12T04:27:28.742Z,4.50
2022-10-12T04:29:55.677Z,4.67
2022-10-12T04:32:22.580Z,4.10
2022-10-12T04:34:49.653Z,4.03
2022-10-12T04:37:16.628Z,3.87
2022-10-12T04:39:43.563Z,4.27
2022-10-12T04:42:10.545Z,4.57
2022-10-12T04:44:37.451Z,4.70
2022-10-12T04:47:04.392Z,4.73
2022-10-12T04:49:31.406Z,5.03
2022-10-12T04:51:58.284Z,4.10
2022-10-12T04:54:25.192Z,4.23
2022-10-12T04:56:52.135Z,4.87
2022-10-12T04:59:19.036Z,4.73
2022-10-12T05:01:46.040Z,4.97
2022-10-12T05:04:13.182Z,4.37
2022-10-12T05:06:40.084Z,4.43
2022-10-12T05:09:07.074Z,4.43
2022-10-12T05:11:34.179Z,4.83
2022-10-12T05:14:01.081Z,4.50
2022-10-12T05:16:28.030Z,4.37
2022-10-12T05:18:54.985Z,4.40
2022-10-12T05:21:21.922Z,4.83
2022-10-12T05:23:52.908Z,4.80
2022-10-12T05:26:20.178Z,4.80
2022-10-12T05:28:47.288Z,4.70
2022-10-12T05:31:14.397Z,4.80
2022-10-12T05:33:41.291Z,5.07
2022-10-12T05:36:08.882Z,5.40
2022-10-12T05:38:35.818Z,4.87
2022-10-12T05:41:02.750Z,5.70
2022-10-12T05:43:29.751Z,5.10
2022-10-12T05:45:56.739Z,5.20
2022-10-12T05:48:24.212Z,5.43
2022-10-12T05:50:54.833Z,5.10
2022-10-12T05:53:23.140Z,5.07
2022-10-12T05:55:58.866Z,5.27
2022-10-12T05:58:28.130Z,5.00
2022-10-12T06:00:55.738Z,4.80
2022-10-12T06:03:25.981Z,5.17
2022-10-12T06:05:53.509Z,4.50
2022-10-12T06:08:20.506Z,5.30
2022-10-12T06:10:51.127Z,5.13
2022-10-12T06:13:19.735Z,5.27
2022-10-12T06:15:47.885Z,5.53
2022-10-12T06:18:16.926Z,5.87
2022-10-12T06:21:08.764Z,6.03
2022-10-12T06:23:39.636Z,5.40
2022-10-12T06:26:07.003Z,5.10
2022-10-12T06:28:33.993Z,4.93
2022-10-12T06:31:01.376Z,4.60
2022-10-12T06:33:28.794Z,5.07
2022-10-12T06:35:56.430Z,5.23
2022-10-12T06:38:24.023Z,5.90
2022-10-12T06:40:52.459Z,5.73
2022-10-12T06:43:20.145Z,5.40
2022-10-12T06:45:47.078Z,5.97
2022-10-12T06:48:18.347Z,5.93
2022-10-12T06:50:47.459Z,6.30
2022-10-12T06:53:14.331Z,5.90
2022-10-12T06:55:41.384Z,5.40
2022-10-12T06:58:08.357Z,6.07
2022-10-12T07:00:35.674Z,5.27
2022-10-12T07:03:02.715Z,5.73
2022-10-12T07:05:30.122Z,5.70
2022-10-12T07:07:57.353Z,5.90
2022-10-12T07:10:25.196Z,6.60
2022-10-12T07:12:52.149Z,7.40
2022-10-12T07:15:19.541Z,8.50
2022-10-12T07:17:46.506Z,7.83
2022-10-12T07:20:13.560Z,8.03
2022-10-12T07:22:40.461Z,8.07
2022-10-12T07:25:08.066Z,7.87
2022-10-12T07:27:35.201Z,19.90
2022-10-12T07:30:02.711Z,13.83
2022-10-12T07:32:29.591Z,9.20
2022-10-12T07:34:57.273Z,7.87
2022-10-12T07:37:24.213Z,7.30
2022-10-12T07:39:56.961Z,8.20
2022-10-12T07:42:25.252Z,8.57
2022-10-12T07:44:52.360Z,9.97
2022-10-12T07:47:19.452Z,9.83
2022-10-12T07:49:46.517Z,9.70
2022-10-12T07:52:13.584Z,8.97
2022-10-12T07:54:40.524Z,7.93
2022-10-12T07:57:08.593Z,7.60
2022-10-12T07:59:35.661Z,7.40
2022-10-12T08:02:02.699Z,8.23
2022-10-12T08:04:29.797Z,8.70
2022-10-12T08:06:57.989Z,7.63
2022-10-12T08:09:25.030Z,8.50
2022-10-12T08:11:52.047Z,7.20
2022-10-12T08:14:19.078Z,7.37
2022-10-12T08:16:46.131Z,7.10
2022-10-12T08:19:13.510Z,7.83
2022-10-12T08:21:42.560Z,9.70
2022-10-12T08:24:13.473Z,11.10
2022-10-12T08:26:40.487Z,10.40
2022-10-12T08:29:08.452Z,10.93
2022-10-12T08:31:36.136Z,10.20
2022-10-12T08:34:04.457Z,10.47
2022-10-12T08:36:31.494Z,9.63
2022-10-12T08:38:58.636Z,10.03
2022-10-12T08:41:53.054Z,9.77
2022-10-12T08:44:52.184Z,10.33
2022-10-12T08:47:32.350Z,10.03
2022-10-12T08:50:02.559Z,11.53
2022-10-12T08:52:41.775Z,11.30
2022-10-12T08:55:29.306Z,10.53
2022-10-12T08:57:56.938Z,10.60
2022-10-12T09:00:24.124Z,11.07
2022-10-12T09:03:35.942Z,12.30
2022-10-12T09:06:19.686Z,13.53
2022-10-12T09:09:32.573Z,12.97
2022-10-12T09:12:16.094Z,14.47
2022-10-12T09:14:43.706Z,17.10
2022-10-12T09:17:42.110Z,14.27
2022-10-12T09:20:41.251Z,12.07
2022-10-12T09:23:32.579Z,12.00
2022-10-12T09:26:39.985Z,10.93
2022-10-12T09:29:28.955Z,11.43
2022-10-12T09:32:37.198Z,10.97
2022-10-12T09:35:05.566Z,10.43
2022-10-12T09:37:33.579Z,12.60
2022-10-12T09:40:00.614Z,14.13
2022-10-12T09:42:27.712Z,12.98
2022-10-12T09:45:12.263Z,12.67
2022-10-12T09:47:39.980Z,13.45
2022-10-12T09:50:08.316Z,12.77
2022-10-12T09:52:45.134Z,12.93
2022-10-12T09:58:02.829Z,11.77
2022-10-12T10:00:33.626Z,12.60
2022-10-12T10:03:02.968Z,12.60
2022-10-12T10:05:38.501Z,12.63
2022-10-12T10:08:14.341Z,12.45
2022-10-12T10:11:02.201Z,12.18
2022-10-12T10:13:31.701Z,12.05
2022-10-12T10:16:12.480Z,10.23
2022-10-12T10:19:18.962Z,10.65
2022-10-12T10:21:46.350Z,12.02
2022-10-12T10:24:31.589Z,11.07
2022-10-12T10:27:03.484Z,10.80
2022-10-12T10:29:42.149Z,10.77
2022-10-12T10:32:26.803Z,10.52
2022-10-12T10:35:13.169Z,10.70
2022-10-12T10:37:52.379Z,9.23
2022-10-12T10:40:30.920Z,8.63
2022-10-12T10:43:06.033Z,7.63
2022-10-12T10:45:50.790Z,7.57
2022-10-12T10:48:32.004Z,8.77
2022-10-12T10:51:05.483Z,8.20
2022-10-12T10:53:47.334Z,8.23
2022-10-12T10:56:26.531Z,7.70
2022-10-12T10:59:09.933Z,7.65
2022-10-12T11:01:56.853Z,8.48
2022-10-12T11:04:32.960Z,7.53
2022-10-12T11:07:30.757Z,7.03
2022-10-12T11:10:03.401Z,7.32
2022-10-12T11:12:37.788Z,8.48
2022-10-12T11:15:19.826Z,8.55
2022-10-12T11:17:57.377Z,9.02
2022-10-12T11:20:46.821Z,7.93
2022-10-12T11:23:30.053Z,7.10
2022-10-12T11:26:08.227Z,7.80
2022-10-12T11:28:37.637Z,7.07
2022-10-12T11:31:07.846Z,6.18
2022-10-12T11:33:42.116Z,5.90
2022-10-12T11:36:14.937Z,6.95
2022-10-12T11:38:51.616Z,6.20
2022-10-12T11:41:48.471Z,5.70
2022-10-12T11:44:12.091Z,5.97
2022-10-12T11:46:57.423Z,7.40
2022-10-12T11:49:40.334Z,5.95
2022-10-12T11:52:11.667Z,6.25
2022-10-12T11:54:53.057Z,5.22
2022-10-12T11:57:27.480Z,5.50
2022-10-12T12:00:25.591Z,6.35
2022-10-12T12:03:05.120Z,5.85
2022-10-12T12:05:32.910Z,5.75
2022-10-12T12:07:59.790Z,4.60
2022-10-12T12:10:27.650Z,5.32
2022-10-12T12:13:17.919Z,4.43
2022-10-12T12:15:47.825Z,4.60
2022-10-12T12:18:23.339Z,4.28
2022-10-12T12:20:50.186Z,4.45
2022-10-12T12:23:27.032Z,4.80
2022-10-12T12:26:22.439Z,4.45
2022-10-12T12:29:08.178Z,4.72
2022-10-12T12:31:35.414Z,4.88
2022-10-12T12:34:05.990Z,4.63
2022-10-12T12:36:37.840Z,4.13
2022-10-12T12:39:08.928Z,4.15
2022-10-12T12:42:02.537Z,4.50
2022-10-12T12:44:40.592Z,4.32
2022-10-12T12:47:32.519Z,4.82
2022-10-12T12:50:03.117Z,4.43
2022-10-12T12:52:39.879Z,4.00
2022-10-12T12:55:37.626Z,4.72
2022-10-12T12:58:37.027Z,4.13
2022-10-12T13:01:23.810Z,4.75
2022-10-12T13:04:28.894Z,4.50
2022-10-12T13:07:38.415Z,3.33
2022-10-12T13:11:04.748Z,4.07
2022-10-12T13:14:02.311Z,3.40
2022-10-12T13:19:54.905Z,3.58
2022-10-12T13:22:33.796Z,4.13
2022-10-12T13:25:08.288Z,4.10
2022-10-12T13:27:51.013Z,3.90
2022-10-12T13:30:46.059Z,4.55
2022-10-12T13:33:23.528Z,4.22
2022-10-12T13:36:08.634Z,4.57
2022-10-12T13:38:40.264Z,3.90
2022-10-12T13:41:17.107Z,3.88
2022-10-12T13:43:54.030Z,3.40
2022-10-12T13:46:43.311Z,3.70
2022-10-12T13:49:21.954Z,3.17
2022-10-12T13:52:00.428Z,3.33
2022-10-12T13:54:48.991Z,3.70
2022-10-12T13:57:32.347Z,3.75
2022-10-12T14:00:08.370Z,4.40
2022-10-12T14:02:35.621Z,4.45
2022-10-12T14:05:05.426Z,3.70
2022-10-12T14:07:41.515Z,4.28
2022-10-12T14:10:19.548Z,3.85
2022-10-12T14:12:49.992Z,4.60
2022-10-12T14:15:17.577Z,4.82
2022-10-12T14:17:52.667Z,4.70
2022-10-12T14:20:31.306Z,4.70
2022-10-12T14:23:01.318Z,4.82
2022-10-12T14:25:30.959Z,4.68
2022-10-12T14:28:05.286Z,4.40
2022-10-12T14:30:41.237Z,4.43
2022-10-12T14:33:17.289Z,5.15
2022-10-12T14:35:48.195Z,4.97
2022-10-12T14:38:38.923Z,5.35
2022-10-12T14:41:44.774Z,4.90
2022-10-12T14:44:16.624Z,5.28
2022-10-12T14:47:02.849Z,4.97
2022-10-12T14:49:42.047Z,4.65
2022-10-12T14:52:21.784Z,5.22
2022-10-12T14:54:57.783Z,4.88
2022-10-12T14:57:30.121Z,4.97
2022-10-12T14:59:58.821Z,4.55
2022-10-12T15:02:33.412Z,5.47
2022-10-12T15:05:01.168Z,5.55
2022-10-12T15:07:34.100Z,5.00
2022-10-12T15:10:01.914Z,5.30
2022-10-12T15:12:31.746Z,5.10
2022-10-12T15:15:13.790Z,4.85
2022-10-12T15:17:40.684Z,4.80
2022-10-12T15:20:09.540Z,5.18
2022-10-12T15:22:36.458Z,5.10
2022-10-12T15:25:20.206Z,4.60
2022-10-12T15:27:47.274Z,4.95
2022-10-12T15:30:15.105Z,4.68
2022-10-12T15:32:42.454Z,5.60
2022-10-12T15:35:21.940Z,5.40
2022-10-12T15:37:49.563Z,4.85
2022-10-12T15:40:19.195Z,5.10
2022-10-12T15:42:47.081Z,4.50
2022-10-12T15:45:26.281Z,4.60
2022-10-12T15:47:54.332Z,4.75
2022-10-12T15:50:30.402Z,4.32
2022-10-12T15:52:57.954Z,4.40
2022-10-12T15:55:28.903Z,4.82
2022-10-12T15:57:56.839Z,5.50
2022-10-12T16:00:27.515Z,5.57
2022-10-12T16:02:56.715Z,4.82
2022-10-12T16:05:28.460Z,5.70
2022-10-12T16:07:55.481Z,5.60
2022-10-12T16:10:26.360Z,5.53
2022-10-12T16:12:54.464Z,5.63
2022-10-12T16:15:32.111Z,5.15
2022-10-12T16:18:00.907Z,5.03
2022-10-12T16:20:31.154Z,5.80
2022-10-12T16:23:00.595Z,5.90
2022-10-12T16:25:28.390Z,7.05
2022-10-12T16:27:57.857Z,7.15
2022-10-12T16:30:26.556Z,7.07
2022-10-12T16:32:53.889Z,5.90
2022-10-12T16:35:21.268Z,6.30
2022-10-12T16:37:48.536Z,4.90
2022-10-12T16:40:16.333Z,5.18
2022-10-12T16:42:43.576Z,5.25
2022-10-12T16:45:11.306Z,4.70
2022-10-12T16:47:41.957Z,9.70
2022-10-12T16:50:10.659Z,6.10
2022-10-12T16:52:37.741Z,5.75
2022-10-12T16:55:06.065Z,5.30
2022-10-12T16:57:33.033Z,5.22
2022-10-12T16:59:59.982Z,4.63
2022-10-12T17:02:27.904Z,4.50
2022-10-12T17:04:54.843Z,4.22
2022-10-12T17:07:22.015Z,5.07
2022-10-12T17:09:49.158Z,4.90
2022-10-12T17:12:16.433Z,4.72
2022-10-12T17:14:43.792Z,4.40
2022-10-12T17:17:10.838Z,4.68
2022-10-12T17:19:40.167Z,5.28
2022-10-12T17:22:10.053Z,5.43
2022-10-12T17:24:39.356Z,5.85
2022-10-12T17:27:08.597Z,6.05
2022-10-12T17:29:36.735Z,6.38
2022-10-12T17:32:04.426Z,6.23
2022-10-12T17:34:40.696Z,6.22
2022-10-12T17:37:11.287Z,6.88
2022-10-12T17:39:44.978Z,7.70
2022-10-12T17:42:12.986Z,6.68
2022-10-12T17:44:40.209Z,6.70
2022-10-12T17:47:07.283Z,7.07
2022-10-12T17:49:34.303Z,8.05
2022-10-12T17:52:01.248Z,7.07
2022-10-12T17:54:28.312Z,7.13
2022-10-12T17:56:56.428Z,6.68
2022-10-12T17:59:23.842Z,7.45
2022-10-12T18:01:51.993Z,7.03
2022-10-12T18:04:20.247Z,7.70
2022-10-12T18:06:47.229Z,7.47
2022-10-12T18:09:14.720Z,7.97
2022-10-12T18:11:41.864Z,7.40
2022-10-12T18:14:10.791Z,6.40
2022-10-12T18:16:38.117Z,7.45
2022-10-12T18:19:06.965Z,6.93
2022-10-12T18:21:34.563Z,7.10
2022-10-12T18:24:06.915Z,6.73
2022-10-12T18:26:34.996Z,6.57
2022-10-12T18:29:02.315Z,6.63
2022-10-12T18:31:30.487Z,8.33
2022-10-12T18:33:58.300Z,7.97
2022-10-12T18:36:26.848Z,7.63
2022-10-12T18:38:54.515Z,7.30
2022-10-12T18:41:25.726Z,7.13
2022-10-12T18:43:58.150Z,7.23
2022-10-12T18:46:28.809Z,8.10
2022-10-12T18:48:56.624Z,7.50
2022-10-12T18:51:31.813Z,8.67
2022-10-12T18:54:00.804Z,7.67
2022-10-12T18:56:29.326Z,7.90
2022-10-12T18:58:59.629Z,8.80
2022-10-12T19:01:29.355Z,8.77
2022-10-12T19:03:59.225Z,9.17
2022-10-12T19:06:31.722Z,9.87
2022-10-12T19:08:59.864Z,9.67
2022-10-12T19:11:29.383Z,10.50
2022-10-12T19:14:01.619Z,10.43
2022-10-12T19:16:29.593Z,9.50
2022-10-12T19:19:20.899Z,9.70
2022-10-12T19:21:50.275Z,9.07
2022-10-12T19:24:18.344Z,8.67
2022-10-12T19:26:45.436Z,9.27
2022-10-12T19:29:12.489Z,9.07
2022-10-12T19:31:43.983Z,8.73
2022-10-12T19:34:14.309Z,8.47
2022-10-12T19:36:42.017Z,7.87
2022-10-12T19:39:14.869Z,8.87
2022-10-12T19:41:41.890Z,9.50
2022-10-12T19:44:10.485Z,8.73
2022-10-12T19:46:37.539Z,8.30
2022-10-12T19:49:04.552Z,8.57
2022-10-12T19:51:32.579Z,9.03
2022-10-12T19:54:02.114Z,9.27
2022-10-12T19:56:29.523Z,8.50
2022-10-12T19:58:58.211Z,9.23
2022-10-12T20:01:35.203Z,7.60
2022-10-12T20:04:07.084Z,8.43
2022-10-12T20:06:34.039Z,8.40
2022-10-12T20:09:05.020Z,7.53
2022-10-12T20:11:32.071Z,8.93
2022-10-12T20:13:59.548Z,8.60
2022-10-12T20:16:29.013Z,8.33
2022-10-12T20:18:58.080Z,8.75
2022-10-12T20:21:27.556Z,8.67
2022-10-12T20:23:54.919Z,7.97
2022-10-12T20:26:25.027Z,8.17
2022-10-12T20:28:53.789Z,9.00
2022-10-12T20:31:23.790Z,8.47
2022-10-12T20:33:53.203Z,9.00
2022-10-12T20:36:28.542Z,8.48
2022-10-12T20:38:57.478Z,8.00
2022-10-12T20:41:25.568Z,7.47
2022-10-12T20:44:00.504Z,7.60
2022-10-12T20:46:30.855Z,7.25
2022-10-12T20:49:00.535Z,6.93
2022-10-12T20:51:35.732Z,7.43
2022-10-12T20:54:05.605Z,7.28
2022-10-12T20:56:33.867Z,7.93
2022-10-12T20:59:01.785Z,7.35
2022-10-12T21:01:29.374Z,7.37
2022-10-12T21:03:56.564Z,7.20
2022-10-12T21:06:23.874Z,7.07
2022-10-12T21:08:56.915Z,6.80
2022-10-12T21:11:25.443Z,6.63
2022-10-12T21:13:53.260Z,7.50
2022-10-12T21:16:20.282Z,7.57
2022-10-12T21:18:47.465Z,6.63
2022-10-12T21:21:17.924Z,7.40
2022-10-12T21:23:56.229Z,7.87
2022-10-12T21:26:26.648Z,7.73
2022-10-12T21:28:53.903Z,6.47
2022-10-12T21:31:21.679Z,6.77
2022-10-12T21:33:48.598Z,6.53
2022-10-12T21:36:24.741Z,6.90
2022-10-12T21:38:51.784Z,6.50
2022-10-12T21:41:22.614Z,6.47
2022-10-12T21:43:50.927Z,6.30
2022-10-12T21:46:22.070Z,6.10
2022-10-12T21:48:49.517Z,6.20
2022-10-12T21:51:18.120Z,6.37
2022-10-12T21:53:45.232Z,6.70
2022-10-12T21:56:28.989Z,6.37
2022-10-12T21:58:58.616Z,7.10
2022-10-12T22:01:36.420Z,7.27
2022-10-12T22:04:13.969Z,7.20
2022-10-12T22:06:42.229Z,7.47
2022-10-12T22:09:16.407Z,7.67
2022-10-12T22:11:44.070Z,7.80
2022-10-12T22:14:15.111Z,7.93
2022-10-12T22:16:43.413Z,8.23
2022-10-12T22:19:18.885Z,8.07
2022-10-12T22:21:51.638Z,8.10
2022-10-12T22:24:20.215Z,7.93
2022-10-12T22:26:47.640Z,7.67
2022-10-12T22:29:14.562Z,7.53
2022-10-12T22:31:41.730Z,8.27
2022-10-12T22:34:09.682Z,8.10
2022-10-12T22:36:36.638Z,8.03
2022-10-12T22:39:04.235Z,8.20
2022-10-12T22:41:31.298Z,8.30
2022-10-12T22:43:58.215Z,7.97
2022-10-12T22:46:26.832Z,8.90
2022-10-12T22:48:54.654Z,8.43
2022-10-12T22:51:33.995Z,8.87
2022-10-12T22:54:03.198Z,8.23
2022-10-12T22:56:30.151Z,8.40
2022-10-12T22:59:00.743Z,8.43
2022-10-12T23:01:28.679Z,8.97
2022-10-12T23:03:55.921Z,8.87
2022-10-12T23:06:23.815Z,8.50
2022-10-12T23:08:51.259Z,8.77
2022-10-12T23:11:23.077Z,8.57
2022-10-12T23:13:50.378Z,8.60
2022-10-12T23:16:21.871Z,9.27
2022-10-12T23:18:58.055Z,8.80
2022-10-12T23:21:28.317Z,9.63
2022-10-12T23:23:55.475Z,10.30
2022-10-12T23:26:25.965Z,9.57
2022-10-12T23:28:54.090Z,9.60
2022-10-12T23:31:25.345Z,10.33
2022-10-12T23:34:04.140Z,9.90
2022-10-12T23:36:31.772Z,9.93
2022-10-12T23:39:04.312Z,10.13
2022-10-12T23:41:31.251Z,10.37
2022-10-12T23:43:58.215Z,10.30
2022-10-12T23:46:25.187Z,9.73
2022-10-12T23:48:52.199Z,9.20
2022-10-12T23:51:19.271Z,9.80
2022-10-12T23:53:46.214Z,9.97
2022-10-12T23:56:13.128Z,9.32
2022-10-12T23:58:40.766Z,8.93
